Mc Henry, North Dakota
Current Conditions -  °F | °C
As of 1:55 PM on Thursday 30 Oct 2014 (Local Time) from K46D Reporting Station
Overcast Overcast  
Wind Chill: 21°   Ceiling: 1700
Heat Index: 32°   Visibility: 10mi
Dew Point: 28°   Wind: 16mph
Humidity: 87%   Direction: 350°N
Pressure: 30.39"   Gusts: 26mph
Location:  47.5438°N, 98.5641°W
Report Text: K46D 301855Z AUTO 35014G23KT 10SM OVC017 00/M02 A3039 RMK AO2
Loading
Personal Weather Stations






























Interactive Weather Map
Tropical Storm Tracking
New forecast layout! Learn more

10-Day Weather Forecast

Advertisements
Track Severe Weather on mobile